Time;durP1;ratioP1;P1;durP2;ratioP2;P2;SDS_P1;SDS_P2;PMS_P1;PMS_P2;Temp;Humidity;BMP_temperature;BMP_pressure;BME280_temperature;BME280_humidity;BME280_pressure;Samples;Min_cycle;Max_cycle;Signal;HPM_P1;HPM_P2
2023/08/26 00:01:53;;;;;;;1.98;1.42;;;;;;;;;;6134537;23;19998;-73
2023/08/26 00:04:20;;;;;;;1.85;1.45;;;25.30;70.70;;;;;;6134768;23;20077;-73
2023/08/26 00:06:46;;;;;;;3.08;1.50;;;;;;;;;;6134694;23;19994;-73
2023/08/26 00:09:12;;;;;;;1.75;1.50;;;;;;;;;;6134632;23;20002;-72
2023/08/26 00:11:38;;;;;;;2.28;1.65;;;;;;;;;;6134724;23;19998;-72
2023/08/26 00:14:04;;;;;;;2.08;1.80;;;;;;;;;;6134551;23;20581;-73
2023/08/26 00:16:30;;;;;;;3.03;1.63;;;;;;;;;;6134587;23;20039;-73
2023/08/26 00:18:59;;;;;;;3.08;1.50;;;;;;;;;;6134519;23;20002;-73
2023/08/26 00:21:25;;;;;;;2.28;1.35;;;;;;;;;;6125411;23;19998;-76
2023/08/26 00:23:51;;;;;;;1.73;1.17;;;;;;;;;;6128479;23;20013;-77
2023/08/26 00:26:17;;;;;;;2.13;1.23;;;;;;;;;;6125313;23;20006;-77
2023/08/26 00:28:44;;;;;;;1.67;1.08;;;;;;;;;;6134945;23;19998;-77
2023/08/26 00:31:10;;;;;;;3.40;1.60;;;;;;;;;;6134718;23;20441;-77
2023/08/26 00:33:36;;;;;;;1.90;1.30;;;;;;;;;;6134550;23;20025;-73
2023/08/26 00:36:02;;;;;;;2.92;1.10;;;;;;;;;;6134350;23;20334;-73
2023/08/26 00:38:28;;;;;;;4.55;1.73;;;;;;;;;;6132687;23;20093;-73
2023/08/26 00:40:54;;;;;;;2.90;1.00;;;;;;;;;;6134293;23;20086;-72
2023/08/26 00:43:20;;;;;;;2.40;1.10;;;;;;;;;;6147325;23;20034;-72
2023/08/26 00:45:50;;;;;;;1.40;1.02;;;25.10;70.70;;;;;;6134394;23;19994;-72
2023/08/26 00:48:17;;;;;;;3.83;1.38;;;;;;;;;;6134657;23;20028;-72
2023/08/26 00:50:46;;;;;;;1.25;0.93;;;25.00;70.50;;;;;;6135103;23;20334;-77
2023/08/26 00:53:13;;;;;;;1.88;1.05;;;;;;;;;;6134473;23;20077;-77
2023/08/26 00:55:41;;;;;;;2.55;1.17;;;25.10;70.60;;;;;;6134001;23;20094;-77
2023/08/26 00:58:07;;;;;;;1.85;1.20;;;;;;;;;;6134490;23;20314;-77
2023/08/26 01:00:35;;;;;;;3.03;1.38;;;25.10;70.80;;;;;;6134434;23;20386;-73
2023/08/26 01:03:01;;;;;;;1.05;0.90;;;;;;;;;;6134311;23;19998;-73
2023/08/26 01:05:28;;;;;;;1.88;1.00;;;25.00;69.40;;;;;;6134585;23;20461;-73
2023/08/26 01:07:54;;;;;;;1.95;1.30;;;;;;;;;;6124581;23;20525;-71
2023/08/26 01:10:27;;;;;;;2.35;1.45;;;25.00;70.50;;;;;;6134062;23;20064;-73
2023/08/26 01:12:53;;;;;;;1.33;1.13;;;;;;;;;;6134280;23;20025;-72
2023/08/26 01:15:20;;;;;;;3.40;1.52;;;;;;;;;;6134012;23;20002;-71
2023/08/26 01:17:46;;;;;;;1.50;1.10;;;;;;;;;;6134808;23;20081;-76
2023/08/26 01:20:12;;;;;;;1.55;1.13;;;;;;;;;;6124562;23;20056;-76
2023/08/26 01:22:41;;;;;;;2.08;1.15;;;25.00;70.60;;;;;;6124747;23;20464;-76
2023/08/26 01:25:08;;;;;;;2.67;1.15;;;;;;;;;;6134630;23;19998;-76
2023/08/26 01:27:34;;;;;;;1.33;0.82;;;;;;;;;;6124913;23;20010;-77
2023/08/26 01:30:00;;;;;;;1.55;0.90;;;25.20;70.10;;;;;;6134377;23;20381;-76
2023/08/26 01:32:41;;;;;;;1.98;1.10;;;24.80;70.30;;;;;;6134197;23;20275;-76
2023/08/26 01:35:12;;;;;;;1.75;1.38;;;24.90;70.30;;;;;;6134013;23;20028;-76
2023/08/26 01:37:40;;;;;;;2.03;0.80;;;24.70;70.30;;;;;;6122570;23;20014;-76
2023/08/26 01:40:08;;;;;;;1.83;1.10;;;24.80;67.70;;;;;;6134315;23;20022;-77
2023/08/26 01:42:36;;;;;;;1.50;0.80;;;24.80;70.20;;;;;;6134177;23;20002;-76
2023/08/26 01:45:05;;;;;;;2.97;0.80;;;24.80;70.00;;;;;;6124216;23;19994;-76
2023/08/26 01:47:31;;;;;;;3.17;0.90;;;;;;;;;;6125132;23;20026;-72
2023/08/26 01:49:58;;;;;;;2.80;1.10;;;;;;;;;;6124418;23;20005;-72
2023/08/26 01:52:24;;;;;;;1.50;0.90;;;;;;;;;;6124039;23;20006;-72
2023/08/26 01:54:51;;;;;;;2.35;0.95;;;;;;;;;;6124458;23;20065;-72
2023/08/26 01:57:17;;;;;;;4.72;0.90;;;;;;;;;;6124302;23;20014;-72
2023/08/26 01:59:44;;;;;;;1.17;0.60;;;;;;;;;;6124039;23;20045;-72
2023/08/26 02:02:11;;;;;;;2.75;1.05;;;;;;;;;;6124231;23;20006;-72
2023/08/26 02:04:40;;;;;;;1.75;0.93;;;24.60;64.40;;;;;;6124271;23;20009;-72
2023/08/26 02:07:06;;;;;;;2.40;1.10;;;;;;;;;;6125948;23;20026;-72
2023/08/26 02:09:33;;;;;;;1.52;0.70;;;;;;;;;;6126314;23;20313;-72
2023/08/26 02:12:00;;;;;;;4.88;1.05;;;;;;;;;;6126315;23;20012;-72
2023/08/26 02:14:26;;;;;;;2.72;0.75;;;;;;;;;;6126327;23;20009;-72
2023/08/26 02:16:53;;;;;;;2.95;1.02;;;;;;;;;;6126163;23;20010;-73
2023/08/26 02:19:19;;;;;;;0.55;0.55;;;;;;;;;;6135742;23;20426;-73
2023/08/26 02:21:45;;;;;;;2.65;0.80;;;;;;;;;;6135712;23;20036;-72
2023/08/26 02:24:11;;;;;;;2.03;1.00;;;;;;;;;;6135659;23;20339;-73
2023/08/26 02:26:37;;;;;;;2.83;1.27;;;;;;;;;;6135868;23;20021;-77
2023/08/26 02:29:04;;;;;;;1.98;1.05;;;;;;;;;;6136345;23;20016;-77
2023/08/26 02:31:30;;;;;;;2.75;0.60;;;;;;;;;;6136196;23;20002;-77
2023/08/26 02:33:55;;;;;;;1.85;0.90;;;;;;;;;;6135708;23;20310;-77
2023/08/26 02:36:22;;;;;;;1.40;0.80;;;;;;;;;;6135669;23;20005;-77
2023/08/26 02:38:48;;;;;;;2.20;0.80;;;;;;;;;;6135630;23;20024;-77
2023/08/26 02:41:14;;;;;;;2.05;0.70;;;;;;;;;;6135743;23;20069;-76
2023/08/26 02:43:41;;;;;;;1.63;0.70;;;;;;;;;;6126507;23;19998;-72
2023/08/26 02:46:07;;;;;;;2.40;0.68;;;;;;;;;;6125569;23;20006;-72
2023/08/26 02:48:34;;;;;;;1.42;0.68;;;;;;;;;;6125984;23;19998;-72
2023/08/26 02:51:01;;;;;;;1.13;0.50;;;24.40;69.90;;;;;;6125587;23;20471;-71
2023/08/26 02:53:28;;;;;;;1.63;0.70;;;24.40;67.30;;;;;;6126018;23;20010;-72
2023/08/26 02:55:55;;;;;;;1.73;0.70;;;24.40;66.60;;;;;;6126393;23;20008;-76
2023/08/26 02:58:22;;;;;;;1.48;0.88;;;;;;;;;;6126236;23;20005;-77
2023/08/26 03:00:48;;;;;;;1.15;0.70;;;;;;;;;;6135724;23;20058;-76
2023/08/26 03:03:15;;;;;;;1.35;0.73;;;24.40;69.50;;;;;;6135479;23;20422;-76
2023/08/26 03:05:41;;;;;;;1.60;0.70;;;;;;;;;;6135708;23;19997;-76
2023/08/26 03:08:07;;;;;;;3.33;0.70;;;;;;;;;;6135846;23;20009;-77
2023/08/26 03:10:33;;;;;;;2.28;0.60;;;;;;;;;;6135794;23;20006;-77
2023/08/26 03:12:59;;;;;;;2.50;0.68;;;;;;;;;;6135808;23;20009;-73
2023/08/26 03:15:29;;;;;;;0.93;0.60;;;24.30;63.80;;;;;;6135302;23;20009;-73
2023/08/26 03:17:56;;;;;;;0.70;0.50;;;;;;;;;;6124884;23;20085;-73
2023/08/26 03:20:22;;;;;;;1.27;0.63;;;;;;;;;;6125974;23;20002;-73
2023/08/26 03:22:48;;;;;;;1.63;0.50;;;;;;;;;;6135457;23;19998;-77
2023/08/26 03:25:14;;;;;;;0.90;0.47;;;;;;;;;;6135875;23;20299;-77
2023/08/26 03:27:40;;;;;;;1.20;0.68;;;;;;;;;;6135969;23;20002;-77
2023/08/26 03:30:07;;;;;;;0.88;0.50;;;;;;;;;;6126340;23;20017;-76
2023/08/26 03:32:33;;;;;;;3.38;0.82;;;;;;;;;;6126236;23;20006;-77
2023/08/26 03:35:00;;;;;;;0.80;0.60;;;;;;;;;;6126332;23;20446;-77
2023/08/26 03:37:26;;;;;;;1.52;0.70;;;;;;;;;;6135668;23;20021;-77
2023/08/26 03:39:52;;;;;;;1.20;0.65;;;;;;;;;;6136235;23;20001;-76
2023/08/26 03:42:18;;;;;;;2.10;0.70;;;;;;;;;;6135796;23;20001;-77
2023/08/26 03:44:44;;;;;;;1.08;0.50;;;;;;;;;;6136014;23;20430;-76
2023/08/26 03:47:10;;;;;;;0.65;0.55;;;;;;;;;;6136013;23;20002;-77
2023/08/26 03:49:36;;;;;;;1.38;0.70;;;;;;;;;;6135594;23;20083;-77
2023/08/26 03:52:02;;;;;;;1.50;0.50;;;;;;;;;;6135871;23;20445;-76
2023/08/26 03:54:28;;;;;;;2.05;0.82;;;;;;;;;;6135451;23;19998;-77
2023/08/26 03:56:54;;;;;;;1.63;0.70;;;;;;;;;;6135432;23;20449;-77
2023/08/26 03:59:20;;;;;;;1.45;0.60;;;;;;;;;;6135671;23;19994;-77
2023/08/26 04:01:46;;;;;;;1.35;0.60;;;;;;;;;;6126314;23;20002;-77
2023/08/26 04:04:15;;;;;;;0.63;0.60;;;;;;;;;;6135780;23;20429;-77
2023/08/26 04:06:42;;;;;;;2.58;0.60;;;;;;;;;;6125701;23;20430;-77
2023/08/26 04:09:08;;;;;;;1.67;0.90;;;;;;;;;;6126203;23;20597;-77
2023/08/26 04:11:34;;;;;;;1.48;0.80;;;;;;;;;;6135644;23;20023;-77
2023/08/26 04:14:00;;;;;;;1.23;0.60;;;;;;;;;;6135609;23;20077;-77
2023/08/26 04:16:28;;;;;;;1.27;0.52;;;;;;;;;;6135834;23;20025;-76
2023/08/26 04:18:54;;;;;;;2.20;0.75;;;;;;;;;;6135701;23;20014;-77
2023/08/26 04:21:20;;;;;;;1.08;0.70;;;;;;;;;;6135681;23;20028;-76
2023/08/26 04:23:47;;;;;;;1.75;0.70;;;;;;;;;;6125587;23;20445;-77
2023/08/26 04:26:13;;;;;;;1.38;0.60;;;;;;;;;;6125731;23;20009;-77
2023/08/26 04:28:39;;;;;;;1.05;0.60;;;;;;;;;;6135416;23;20002;-76
2023/08/26 04:31:07;;;;;;;0.98;0.68;;;;;;;;;;6135390;23;20001;-76
2023/08/26 04:33:34;;;;;;;1.30;0.55;;;;;;;;;;6135459;23;20002;-76
2023/08/26 04:36:00;;;;;;;1.65;0.88;;;;;;;;;;6134739;23;20056;-76
2023/08/26 04:38:26;;;;;;;2.30;0.60;;;;;;;;;;6124900;23;20010;-75
2023/08/26 04:40:53;;;;;;;1.38;0.63;;;;;;;;;;6124900;23;20457;-77
2023/08/26 04:43:19;;;;;;;1.75;0.50;;;;;;;;;;6124844;23;20006;-77
2023/08/26 04:45:46;;;;;;;0.82;0.70;;;;;;;;;;6125379;23;20002;-77
2023/08/26 04:48:12;;;;;;;1.48;0.52;;;;;;;;;;6124835;23;20032;-76
2023/08/26 04:50:41;;;;;;;1.27;0.55;;;;;;;;;;6125244;23;20324;-76
2023/08/26 04:53:07;;;;;;;1.40;0.70;;;;;;;;;;6134697;23;20399;-76
2023/08/26 04:55:33;;;;;;;1.45;0.65;;;;;;;;;;6133415;23;19998;-76
2023/08/26 04:57:59;;;;;;;1.17;0.68;;;;;;;;;;6134537;23;20500;-77
2023/08/26 05:00:25;;;;;;;1.60;0.63;;;;;;;;;;6134571;23;20018;-78
2023/08/26 05:02:52;;;;;;;1.15;0.68;;;;;;;;;;6134460;23;20009;-78
2023/08/26 05:05:19;;;;;;;1.23;0.70;;;;;;;;;;6134534;23;20010;-77
2023/08/26 05:07:45;;;;;;;1.45;0.70;;;;;;;;;;6124798;23;20375;-75
2023/08/26 05:10:11;;;;;;;0.60;0.50;;;;;;;;;;6135489;23;20118;-76
2023/08/26 05:12:37;;;;;;;1.20;0.50;;;;;;;;;;6134245;23;20076;-74
2023/08/26 05:15:04;;;;;;;1.63;0.60;;;23.50;68.40;;;;;;6134794;23;20000;-74
2023/08/26 05:17:30;;;;;;;1.05;0.50;;;;;;;;;;6134236;23;20060;-77
2023/08/26 05:19:56;;;;;;;1.48;0.70;;;;;;;;;;6134253;23;20041;-77
2023/08/26 05:22:22;;;;;;;1.15;0.30;;;;;;;;;;6134201;23;19998;-77
2023/08/26 05:24:48;;;;;;;2.80;0.80;;;;;;;;;;6134457;23;19994;-77
2023/08/26 05:27:15;;;;;;;1.05;0.50;;;23.60;67.20;;;;;;6134174;23;20049;-74
2023/08/26 05:29:41;;;;;;;1.02;0.40;;;;;;;;;;6134335;23;19998;-75
2023/08/26 05:32:07;;;;;;;2.35;0.73;;;;;;;;;;6134156;23;20028;-74
2023/08/26 05:34:33;;;;;;;0.82;0.70;;;;;;;;;;6134181;23;20002;-76
2023/08/26 05:36:59;;;;;;;1.00;0.70;;;;;;;;;;6124108;23;20053;-75
2023/08/26 05:39:26;;;;;;;2.78;0.70;;;;;;;;;;6124805;23;20018;-78
2023/08/26 05:41:52;;;;;;;1.70;0.70;;;;;;;;;;6124402;23;20006;-78
2023/08/26 05:44:19;;;;;;;1.83;0.75;;;;;;;;;;6124339;23;20005;-78
2023/08/26 05:46:45;;;;;;;2.05;0.60;;;;;;;;;;6134243;23;20329;-78
2023/08/26 05:49:11;;;;;;;2.67;0.60;;;;;;;;;;6134024;23;19998;-78
2023/08/26 05:51:37;;;;;;;1.85;0.47;;;;;;;;;;6124139;23;20002;-79
2023/08/26 05:54:04;;;;;;;1.65;0.57;;;;;;;;;;6124059;23;20022;-77
2023/08/26 05:56:31;;;;;;;4.22;0.50;;;;;;;;;;6124300;23;20330;-78
2023/08/26 05:58:57;;;;;;;1.38;0.65;;;;;;;;;;6124002;23;20346;-78
2023/08/26 06:01:23;;;;;;;1.88;0.60;;;;;;;;;;6124420;23;20003;-77
2023/08/26 06:03:50;;;;;;;1.48;0.50;;;;;;;;;;6124566;23;20349;-78
2023/08/26 06:06:16;;;;;;;1.23;0.40;;;;;;;;;;6124306;23;20060;-78
2023/08/26 06:08:43;;;;;;;1.13;0.32;;;;;;;;;;6124518;23;20009;-79
2023/08/26 06:11:09;;;;;;;1.00;0.47;;;;;;;;;;6124215;23;20077;-77
2023/08/26 06:13:36;;;;;;;1.23;0.77;;;;;;;;;;6124373;23;20326;-79
2023/08/26 06:16:02;;;;;;;1.58;0.52;;;;;;;;;;6124341;23;20003;-78
2023/08/26 06:18:29;;;;;;;2.38;0.57;;;;;;;;;;6123996;23;20425;-79
2023/08/26 06:20:55;;;;;;;0.95;0.40;;;;;;;;;;6124148;23;20002;-79
2023/08/26 06:23:22;;;;;;;3.60;0.57;;;;;;;;;;6123969;23;20057;-78
2023/08/26 06:25:53;;;;;;;5.43;0.60;;;23.40;64.80;;;;;;6124496;23;20006;-79
2023/08/26 06:28:19;;;;;;;0.63;0.45;;;;;;;;;;6124530;23;19998;-79
2023/08/26 06:30:46;;;;;;;1.73;0.63;;;;;;;;;;6124827;23;20005;-73
2023/08/26 06:33:12;;;;;;;2.40;0.50;;;;;;;;;;6123714;23;20037;-73
2023/08/26 06:35:39;;;;;;;2.35;0.60;;;;;;;;;;6124191;23;20008;-73
2023/08/26 06:38:07;;;;;;;0.98;0.40;;;23.30;70.50;;;;;;6123722;23;20013;-73
2023/08/26 06:40:34;;;;;;;1.55;0.80;;;;;;;;;;6124377;23;20066;-74
2023/08/26 06:43:03;;;;;;;1.25;0.43;;;;;;;;;;6124482;23;20053;-73
2023/08/26 06:45:30;;;;;;;0.73;0.50;;;23.40;67.00;;;;;;6124785;23;20098;-72
2023/08/26 06:47:57;;;;;;;0.93;0.50;;;;;;;;;;6124782;23;20009;-72
2023/08/26 06:50:24;;;;;;;0.95;0.45;;;;;;;;;;6124147;23;20002;-74
2023/08/26 06:52:51;;;;;;;1.08;0.45;;;;;;;;;;6124200;23;20492;-72
2023/08/26 06:55:18;;;;;;;1.85;0.60;;;;;;;;;;6125765;23;20049;-72
2023/08/26 06:57:44;;;;;;;1.55;0.50;;;;;;;;;;6125530;23;20017;-74
2023/08/26 07:00:12;;;;;;;1.25;0.52;;;23.40;70.40;;;;;;6125766;23;20026;-73
2023/08/26 07:02:39;;;;;;;3.58;0.77;;;;;;;;;;6125530;23;20005;-72
2023/08/26 07:05:05;;;;;;;2.05;0.70;;;;;;;;;;6125531;23;20026;-73
2023/08/26 07:07:32;;;;;;;1.33;0.60;;;;;;;;;;6125921;23;20060;-73
2023/08/26 07:09:58;;;;;;;1.20;0.47;;;;;;;;;;6125839;23;20012;-73
2023/08/26 07:12:24;;;;;;;1.13;0.50;;;;;;;;;;6135332;23;20065;-73
2023/08/26 07:14:50;;;;;;;0.90;0.68;;;;;;;;;;6135295;23;20069;-74
2023/08/26 07:17:17;;;;;;;1.83;0.50;;;;;;;;;;6126213;23;20018;-73
2023/08/26 07:19:44;;;;;;;1.27;0.40;;;;;;;;;;6125318;23;19998;-73
2023/08/26 07:22:10;;;;;;;0.95;0.60;;;;;;;;;;6125702;23;20013;-75
2023/08/26 07:24:37;;;;;;;3.97;0.98;;;;;;;;;;6125217;23;20022;-74
2023/08/26 07:27:04;;;;;;;1.00;0.60;;;;;;;;;;6125659;23;20030;-74
2023/08/26 07:29:37;;;;;;;1.52;0.70;;;23.60;63.90;;;;;;6125742;23;20006;-74
2023/08/26 07:32:03;;;;;;;1.48;0.50;;;;;;;;;;6135536;23;20391;-74
2023/08/26 07:34:29;;;;;;;0.95;0.50;;;;;;;;;;6134871;23;20078;-74
2023/08/26 07:36:55;;;;;;;1.50;0.50;;;;;;;;;;6134408;23;20005;-74
2023/08/26 07:39:24;;;;;;;1.23;0.40;;;;;;;;;;6134781;23;20001;-74
2023/08/26 07:41:50;;;;;;;0.70;0.40;;;;;;;;;;6134808;23;20316;-74
2023/08/26 07:44:16;;;;;;;0.85;0.50;;;;;;;;;;6135056;23;19997;-74
2023/08/26 07:46:42;;;;;;;0.95;0.60;;;;;;;;;;6135029;23;19998;-78
2023/08/26 07:49:08;;;;;;;2.75;0.40;;;;;;;;;;6148005;23;20025;-75
2023/08/26 07:51:34;;;;;;;1.30;0.40;;;;;;;;;;6124643;23;20081;-74
2023/08/26 07:54:00;;;;;;;0.98;0.45;;;;;;;;;;6134720;23;20024;-74
2023/08/26 07:56:27;;;;;;;0.85;0.43;;;;;;;;;;6125321;23;20069;-74
2023/08/26 07:58:53;;;;;;;1.20;0.63;;;;;;;;;;6125274;23;20010;-79
2023/08/26 08:01:20;;;;;;;1.20;0.52;;;;;;;;;;6125487;23;20006;-76
2023/08/26 08:03:46;;;;;;;1.92;0.57;;;;;;;;;;6125517;23;20005;-76
2023/08/26 08:06:13;;;;;;;2.05;0.50;;;;;;;;;;6124944;23;20006;-79
2023/08/26 08:08:39;;;;;;;2.85;0.93;;;;;;;;;;6125548;23;20350;-77
2023/08/26 08:11:05;;;;;;;3.47;0.80;;;;;;;;;;6125032;23;20065;-76
2023/08/26 08:13:32;;;;;;;1.83;0.60;;;;;;;;;;6125165;23;20013;-75
2023/08/26 08:15:59;;;;;;;1.70;0.85;;;;;;;;;;6124930;23;20006;-76
2023/08/26 08:18:25;;;;;;;2.30;0.90;;;;;;;;;;6125057;23;20014;-76
2023/08/26 08:20:52;;;;;;;3.45;1.02;;;;;;;;;;6124822;23;20002;-76
2023/08/26 08:23:19;;;;;;;3.83;1.10;;;;;;;;;;6125396;23;20085;-77
2023/08/26 08:25:45;;;;;;;2.17;1.13;;;;;;;;;;6125258;23;20009;-76
2023/08/26 08:28:11;;;;;;;2.78;0.95;;;;;;;;;;6125172;23;20081;-75
2023/08/26 08:30:38;;;;;;;1.10;0.90;;;;;;;;;;6125443;23;20145;-76
2023/08/26 08:33:05;;;;;;;3.05;1.10;;;;;;;;;;6125608;23;20303;-73
2023/08/26 08:35:31;;;;;;;1.85;1.10;;;;;;;;;;6124688;23;20016;-74
2023/08/26 08:37:58;;;;;;;2.55;1.13;;;;;;;;;;6124255;23;20018;-73
2023/08/26 08:40:24;;;;;;;1.38;1.17;;;;;;;;;;6125839;23;19998;-73
2023/08/26 08:42:54;;;;;;;3.28;1.08;;;23.50;72.30;;;;;;6124626;23;20006;-72
2023/08/26 08:45:20;;;;;;;2.07;1.30;;;;;;;;;;6124702;23;20001;-73
2023/08/26 08:47:48;;;;;;;2.78;0.98;;;23.50;71.80;;;;;;6124936;23;20416;-73
2023/08/26 08:50:15;;;;;;;3.88;0.82;;;23.50;71.70;;;;;;6124705;23;19998;-72
2023/08/26 08:52:42;;;;;;;1.73;0.98;;;23.50;71.60;;;;;;6124854;23;20002;-72
2023/08/26 08:55:09;;;;;;;2.17;1.10;;;;;;;;;;6134389;23;20005;-75
2023/08/26 08:57:35;;;;;;;2.97;1.13;;;23.60;69.70;;;;;;6134356;23;20009;-73
2023/08/26 09:00:03;;;;;;;2.17;0.93;;;23.60;68.90;;;;;;6135117;23;20391;-79
2023/08/26 09:02:29;;;;;;;1.52;0.73;;;;;;;;;;6134886;23;20082;-80
2023/08/26 09:04:55;;;;;;;2.72;0.73;;;;;;;;;;6135180;23;19994;-79
2023/08/26 09:07:22;;;;;;;3.92;0.80;;;;;;;;;;6134831;23;20168;-75
2023/08/26 09:09:48;;;;;;;3.47;1.10;;;;;;;;;;6134681;23;20001;-74
2023/08/26 09:12:14;;;;;;;0.90;0.80;;;;;;;;;;6134496;23;19998;-73
2023/08/26 09:14:40;;;;;;;2.10;0.80;;;;;;;;;;6134303;23;20425;-74
2023/08/26 09:17:19;;;;;;;1.27;0.80;;;23.70;65.50;;;;;;6133964;23;20080;-73
2023/08/26 09:19:52;;;;;;;1.13;0.80;;;23.70;65.90;;;;;;6134366;23;20033;-72
2023/08/26 09:22:20;;;;;;;1.02;0.85;;;;;;;;;;6134273;23;20005;-72
2023/08/26 09:24:46;;;;;;;1.15;0.80;;;;;;;;;;6134271;23;19998;-73
2023/08/26 09:27:14;;;;;;;2.33;0.88;;;23.60;70.50;;;;;;6134345;23;20332;-72
2023/08/26 09:29:40;;;;;;;1.42;0.50;;;;;;;;;;6133263;23;20084;-72
2023/08/26 09:32:07;;;;;;;1.13;0.70;;;;;;;;;;6124864;23;20200;-73
2023/08/26 09:34:33;;;;;;;0.55;0.40;;;;;;;;;;6134152;23;20029;-73
2023/08/26 09:37:01;;;;;;;2.75;0.82;;;23.80;70.60;;;;;;6133822;23;20006;-72
2023/08/26 09:39:28;;;;;;;1.43;0.63;;;23.90;67.80;;;;;;6134337;23;19998;-72
2023/08/26 09:41:58;;;;;;;1.20;0.60;;;23.80;70.60;;;;;;6134841;23;20081;-74
2023/08/26 09:44:24;;;;;;;1.58;0.68;;;;;;;;;;6124672;23;20061;-75
2023/08/26 09:46:56;;;;;;;1.83;0.50;;;23.80;70.60;;;;;;6134066;23;20006;-74
2023/08/26 09:49:22;;;;;;;1.52;0.50;;;;;;;;;;6134044;23;19994;-73
2023/08/26 09:51:50;;;;;;;2.03;0.60;;;23.80;70.70;;;;;;6134074;23;20009;-73
2023/08/26 09:54:17;;;;;;;1.20;0.43;;;23.70;70.50;;;;;;6134105;23;20002;-73
2023/08/26 09:56:43;;;;;;;2.60;0.50;;;;;;;;;;6134429;23;20052;-71
2023/08/26 09:59:09;;;;;;;1.50;0.50;;;;;;;;;;6133944;23;20010;-71
2023/08/26 10:01:35;;;;;;;1.05;0.40;;;;;;;;;;6133771;23;19998;-70
2023/08/26 10:04:04;;;;;;;0.82;0.45;;;23.70;64.90;;;;;;6133622;23;19998;-72
2023/08/26 10:06:33;;;;;;;1.90;0.70;;;23.90;70.80;;;;;;6133980;23;20005;-71
2023/08/26 10:09:08;;;;;;;2.03;0.50;;;;;;;;;;6124669;23;20394;-73
2023/08/26 10:11:40;;;;;;;0.98;0.38;;;23.90;70.60;;;;;;6123893;23;20006;-73
2023/08/26 10:14:11;;;;;;;1.20;0.60;;;24.00;70.70;;;;;;6124556;23;20006;-72
2023/08/26 10:16:41;;;;;;;1.27;0.50;;;23.90;70.60;;;;;;6124184;23;20021;-72
2023/08/26 10:19:08;;;;;;;1.37;0.50;;;23.90;68.90;;;;;;6124471;23;20367;-73
2023/08/26 10:21:35;;;;;;;0.70;0.52;;;23.90;70.50;;;;;;6124455;23;20018;-74
2023/08/26 10:24:02;;;;;;;2.00;0.60;;;;;;;;;;6124534;23;20326;-72
2023/08/26 10:26:29;;;;;;;1.27;0.60;;;;;;;;;;6125225;23;20002;-71
2023/08/26 10:28:56;;;;;;;1.83;0.65;;;24.00;67.20;;;;;;6125669;23;20441;-71
2023/08/26 10:31:35;;;;;;;1.58;0.80;;;24.00;70.40;;;;;;6125985;23;20005;-72
2023/08/26 10:34:13;;;;;;;1.27;0.73;;;24.10;70.10;;;;;;6126063;23;20002;-72
2023/08/26 10:36:41;;;;;;;1.60;0.52;;;24.20;69.80;;;;;;6135432;23;20230;-72
2023/08/26 10:39:18;;;;;;;3.13;0.80;;;24.20;64.10;;;;;;6135639;23;20013;-71
2023/08/26 10:42:12;;;;;;;1.60;0.73;;;24.30;64.00;;;;;;6135738;23;20005;-73
2023/08/26 10:44:39;;;;;;;4.63;0.80;;;24.40;68.10;;;;;;6135531;23;20517;-72
2023/08/26 10:47:06;;;;;;;1.52;0.43;;;;;;;;;;6135439;23;19994;-72
2023/08/26 10:49:32;;;;;;;1.27;0.50;;;;;;;;;;6135472;23;20493;-73
2023/08/26 10:52:09;;;;;;;2.67;0.70;;;24.40;64.00;;;;;;6135538;23;20022;-72
2023/08/26 10:54:36;;;;;;;1.42;0.70;;;;;;;;;;6136041;23;20072;-74
2023/08/26 10:57:08;;;;;;;2.67;0.90;;;24.40;63.80;;;;;;6135331;23;20085;-72
2023/08/26 10:59:41;;;;;;;2.97;0.63;;;24.40;69.60;;;;;;6135399;23;20009;-75
2023/08/26 11:02:09;;;;;;;2.30;0.82;;;24.70;69.40;;;;;;6135813;23;19994;-73
2023/08/26 11:05:00;;;;;;;1.63;0.60;;;;;;;;;;6125537;23;20034;-78
2023/08/26 11:07:27;;;;;;;1.52;0.70;;;;;;;;;;6125470;23;20017;-78
2023/08/26 11:09:53;;;;;;;1.08;0.55;;;;;;;;;;6126225;23;20009;-79
2023/08/26 11:12:26;;;;;;;1.63;0.77;;;;;;;;;;6148782;23;20012;-78
2023/08/26 11:14:53;;;;;;;2.38;0.73;;;24.50;66.80;;;;;;6135602;23;20005;-79
2023/08/26 11:17:20;;;;;;;2.03;0.65;;;;;;;;;;6131040;23;20092;-79
2023/08/26 11:19:46;;;;;;;1.02;0.60;;;;;;;;;;6135783;23;20065;-80
2023/08/26 11:22:12;;;;;;;3.13;1.02;;;;;;;;;;6135551;23;20014;-75
2023/08/26 11:24:38;;;;;;;1.75;0.93;;;;;;;;;;6135309;23;20291;-74
2023/08/26 11:27:04;;;;;;;0.70;0.57;;;;;;;;;;6135226;23;20001;-74
2023/08/26 11:29:30;;;;;;;2.45;0.88;;;;;;;;;;6135085;23;20009;-74
2023/08/26 11:31:56;;;;;;;1.88;0.82;;;;;;;;;;6135436;23;19994;-75
2023/08/26 11:34:24;;;;;;;1.27;0.73;;;;;;;;;;6135303;23;20002;-78
2023/08/26 11:36:52;;;;;;;2.88;0.90;;;24.40;69.70;;;;;;6134900;23;20024;-78
2023/08/26 11:39:18;;;;;;;2.42;0.90;;;;;;;;;;6125365;23;20006;-79
2023/08/26 11:41:44;;;;;;;3.20;0.70;;;;;;;;;;6135105;23;20617;-81
2023/08/26 11:44:15;;;;;;;1.52;0.93;;;24.30;70.00;;;;;;6135224;23;20069;-78
2023/08/26 11:46:41;;;;;;;1.27;0.75;;;;;;;;;;6135370;23;19994;-78
2023/08/26 11:49:10;;;;;;;1.70;0.68;;;24.30;70.00;;;;;;6135434;23;20076;-80
2023/08/26 11:51:36;;;;;;;1.98;0.60;;;;;;;;;;6136415;23;20008;-77
2023/08/26 11:54:02;;;;;;;3.63;0.93;;;;;;;;;;6135730;23;20025;-75
2023/08/26 11:56:28;;;;;;;0.93;0.40;;;;;;;;;;6136011;23;20059;-75
2023/08/26 11:58:54;;;;;;;2.15;0.85;;;;;;;;;;6135515;23;20411;-77
2023/08/26 12:01:23;;;;;;;1.95;0.73;;;24.80;69.70;;;;;;6135729;23;20001;-75
2023/08/26 12:03:49;;;;;;;3.00;0.70;;;;;;;;;;6135251;23;20005;-78
2023/08/26 12:06:16;;;;;;;2.72;0.70;;;;;;;;;;6148516;23;20061;-78
2023/08/26 12:08:44;;;;;;;2.65;0.68;;;;;;;;;;6125180;23;20012;-77
2023/08/26 12:11:11;;;;;;;1.23;0.60;;;;;;;;;;6125763;23;20002;-78
2023/08/26 12:13:38;;;;;;;1.42;0.80;;;;;;;;;;6125719;23;20006;-78
2023/08/26 12:16:05;;;;;;;1.23;0.70;;;24.20;68.20;;;;;;6135160;23;20427;-77
2023/08/26 12:18:31;;;;;;;0.95;0.60;;;;;;;;;;6134881;23;20022;-77
2023/08/26 12:20:57;;;;;;;1.33;0.50;;;;;;;;;;6135490;23;20378;-74
2023/08/26 12:23:23;;;;;;;2.35;0.63;;;;;;;;;;6134813;23;19998;-76
2023/08/26 12:25:49;;;;;;;2.88;0.90;;;;;;;;;;6134859;23;20507;-74
2023/08/26 12:28:23;;;;;;;1.65;0.80;;;24.50;69.80;;;;;;6134939;23;19998;-75
2023/08/26 12:30:50;;;;;;;2.15;0.60;;;;;;;;;;6135089;23;20002;-75
2023/08/26 12:33:16;;;;;;;1.65;0.70;;;;;;;;;;6134953;23;20406;-73
2023/08/26 12:35:42;;;;;;;2.30;0.70;;;;;;;;;;6134900;23;20013;-74
2023/08/26 12:38:08;;;;;;;3.25;0.80;;;;;;;;;;6134435;23;20065;-74
2023/08/26 12:40:40;;;;;;;1.35;0.60;;;24.40;70.00;;;;;;6125046;23;20374;-75
2023/08/26 12:43:06;;;;;;;2.90;0.70;;;;;;;;;;6125633;23;20021;-76
2023/08/26 12:45:34;;;;;;;1.48;0.60;;;24.40;69.90;;;;;;6125103;23;20017;-76
2023/08/26 12:48:02;;;;;;;1.35;0.63;;;24.50;67.00;;;;;;6125205;23;20002;-76
2023/08/26 12:50:29;;;;;;;1.00;0.60;;;;;;;;;;6124713;23;20009;-75
2023/08/26 12:52:56;;;;;;;2.10;0.50;;;;;;;;;;6125099;23;20005;-76
2023/08/26 12:55:22;;;;;;;1.05;0.40;;;;;;;;;;6124611;23;20028;-74
2023/08/26 12:57:49;;;;;;;1.35;0.52;;;;;;;;;;6124994;23;20010;-74
2023/08/26 13:00:15;;;;;;;1.35;0.60;;;;;;;;;;6125008;23;20341;-73
2023/08/26 13:02:44;;;;;;;1.98;0.40;;;;;;;;;;6124544;23;19998;-74
2023/08/26 13:05:11;;;;;;;2.03;0.80;;;;;;;;;;6124644;23;20002;-74
2023/08/26 13:07:38;;;;;;;1.17;0.60;;;;;;;;;;6125295;23;20325;-77
2023/08/26 13:10:05;;;;;;;1.83;0.55;;;;;;;;;;6124967;23;20311;-76
2023/08/26 13:12:32;;;;;;;1.75;0.70;;;24.30;66.90;;;;;;6124747;23;20434;-76
2023/08/26 13:14:58;;;;;;;0.55;0.40;;;;;;;;;;6124638;23;20005;-76
2023/08/26 13:17:25;;;;;;;2.05;0.63;;;;;;;;;;6124609;23;20017;-74
2023/08/26 13:19:52;;;;;;;1.50;0.80;;;24.20;68.40;;;;;;6125315;23;20053;-76
2023/08/26 13:22:19;;;;;;;2.35;0.75;;;;;;;;;;6125035;23;20005;-74
2023/08/26 13:24:45;;;;;;;3.28;0.88;;;;;;;;;;6125003;23;20322;-74
2023/08/26 13:27:12;;;;;;;1.25;0.65;;;;;;;;;;6124431;23;20027;-71
2023/08/26 13:29:38;;;;;;;1.98;0.50;;;;;;;;;;6124795;23;20009;-74
2023/08/26 13:32:05;;;;;;;2.55;0.80;;;;;;;;;;6124911;23;20006;-74
2023/08/26 13:34:31;;;;;;;2.60;0.52;;;;;;;;;;6124833;23;20005;-72
2023/08/26 13:36:58;;;;;;;1.98;0.85;;;;;;;;;;6124475;23;20089;-73
2023/08/26 13:39:24;;;;;;;2.05;0.63;;;;;;;;;;6124347;23;20009;-74
2023/08/26 13:41:51;;;;;;;0.70;0.50;;;;;;;;;;6124355;23;20081;-74
2023/08/26 13:44:18;;;;;;;1.45;0.60;;;;;;;;;;6124296;23;20057;-73
2023/08/26 13:46:44;;;;;;;2.42;0.70;;;;;;;;;;6124825;23;20009;-74
2023/08/26 13:49:10;;;;;;;1.45;0.82;;;;;;;;;;6134143;23;20384;-74
2023/08/26 13:51:36;;;;;;;1.65;0.90;;;;;;;;;;6134232;23;20005;-73
2023/08/26 13:54:13;;;;;;;1.40;0.70;;;;;;;;;;6134876;23;20002;-76
2023/08/26 13:56:39;;;;;;;2.03;0.75;;;;;;;;;;6134282;23;20033;-78
2023/08/26 13:59:05;;;;;;;1.90;0.70;;;;;;;;;;6124468;23;20014;-78
2023/08/26 14:01:31;;;;;;;1.27;0.75;;;;;;;;;;6134252;23;19998;-78
2023/08/26 14:03:58;;;;;;;2.65;0.63;;;;;;;;;;6136010;23;20295;-78
2023/08/26 14:06:24;;;;;;;5.30;0.63;;;;;;;;;;6149244;23;20010;-75
2023/08/26 14:08:50;;;;;;;2.22;0.80;;;;;;;;;;6135998;23;20080;-74
2023/08/26 14:11:16;;;;;;;3.42;0.68;;;;;;;;;;6136014;23;19998;-73
2023/08/26 14:13:42;;;;;;;2.85;0.50;;;;;;;;;;6136137;23;19998;-73
2023/08/26 14:16:08;;;;;;;1.45;0.50;;;;;;;;;;6135924;23;20432;-74